sensor_id;sensor_type;location;lat;lon;timestamp;P1;durP1;ratioP1;P2;durP2;ratioP2
18072;SDS011;9161;47.348;9.648;2023-02-15T00:02:43;41.37;;;17.40;;
18072;SDS011;9161;47.348;9.648;2023-02-15T00:07:47;59.47;;;18.13;;
18072;SDS011;9161;47.348;9.648;2023-02-15T00:12:49;45.30;;;16.33;;
18072;SDS011;9161;47.348;9.648;2023-02-15T00:17:51;108.70;;;16.40;;
18072;SDS011;9161;47.348;9.648;2023-02-15T00:22:55;51.30;;;14.77;;
18072;SDS011;9161;47.348;9.648;2023-02-15T00:27:59;47.47;;;14.93;;
18072;SDS011;9161;47.348;9.648;2023-02-15T00:33:01;31.87;;;13.73;;
18072;SDS011;9161;47.348;9.648;2023-02-15T00:38:05;37.13;;;13.83;;
18072;SDS011;9161;47.348;9.648;2023-02-15T00:43:07;43.80;;;14.23;;
18072;SDS011;9161;47.348;9.648;2023-02-15T00:48:10;35.70;;;13.73;;
18072;SDS011;9161;47.348;9.648;2023-02-15T00:53:13;32.47;;;13.10;;
18072;SDS011;9161;47.348;9.648;2023-02-15T00:58:15;31.30;;;13.37;;
18072;SDS011;9161;47.348;9.648;2023-02-15T01:03:18;32.97;;;13.83;;
18072;SDS011;9161;47.348;9.648;2023-02-15T01:08:23;28.27;;;13.10;;
18072;SDS011;9161;47.348;9.648;2023-02-15T01:13:25;35.40;;;14.10;;
18072;SDS011;9161;47.348;9.648;2023-02-15T01:18:27;30.80;;;13.57;;
18072;SDS011;9161;47.348;9.648;2023-02-15T01:23:32;35.00;;;13.57;;
18072;SDS011;9161;47.348;9.648;2023-02-15T01:28:34;28.03;;;13.30;;
18072;SDS011;9161;47.348;9.648;2023-02-15T01:33:37;32.47;;;14.97;;
18072;SDS011;9161;47.348;9.648;2023-02-15T01:38:41;33.77;;;15.27;;
18072;SDS011;9161;47.348;9.648;2023-02-15T01:43:44;31.60;;;14.20;;
18072;SDS011;9161;47.348;9.648;2023-02-15T01:48:50;34.30;;;15.00;;
18072;SDS011;9161;47.348;9.648;2023-02-15T01:53:57;25.03;;;12.57;;
18072;SDS011;9161;47.348;9.648;2023-02-15T01:59:05;27.90;;;12.80;;
18072;SDS011;9161;47.348;9.648;2023-02-15T02:04:11;28.80;;;13.23;;
18072;SDS011;9161;47.348;9.648;2023-02-15T02:09:19;29.90;;;12.73;;
18072;SDS011;9161;47.348;9.648;2023-02-15T02:14:21;32.00;;;13.07;;
18072;SDS011;9161;47.348;9.648;2023-02-15T02:19:54;36.33;;;13.40;;
18072;SDS011;9161;47.348;9.648;2023-02-15T02:25:36;35.53;;;14.00;;
18072;SDS011;9161;47.348;9.648;2023-02-15T02:31:14;35.93;;;15.50;;
18072;SDS011;9161;47.348;9.648;2023-02-15T02:36:33;36.03;;;16.20;;
18072;SDS011;9161;47.348;9.648;2023-02-15T02:41:44;36.80;;;14.00;;
18072;SDS011;9161;47.348;9.648;2023-02-15T02:46:52;33.80;;;14.97;;
18072;SDS011;9161;47.348;9.648;2023-02-15T02:52:01;34.97;;;14.47;;
18072;SDS011;9161;47.348;9.648;2023-02-15T02:57:06;45.40;;;15.47;;
18072;SDS011;9161;47.348;9.648;2023-02-15T03:02:11;46.97;;;15.97;;
18072;SDS011;9161;47.348;9.648;2023-02-15T03:07:20;47.23;;;15.67;;
18072;SDS011;9161;47.348;9.648;2023-02-15T03:12:25;40.00;;;15.83;;
18072;SDS011;9161;47.348;9.648;2023-02-15T03:17:32;44.63;;;15.37;;
18072;SDS011;9161;47.348;9.648;2023-02-15T03:22:38;42.40;;;15.33;;
18072;SDS011;9161;47.348;9.648;2023-02-15T03:27:45;45.43;;;15.03;;
18072;SDS011;9161;47.348;9.648;2023-02-15T03:32:49;43.40;;;15.87;;
18072;SDS011;9161;47.348;9.648;2023-02-15T03:37:56;41.83;;;14.63;;
18072;SDS011;9161;47.348;9.648;2023-02-15T03:43:02;45.87;;;16.07;;
18072;SDS011;9161;47.348;9.648;2023-02-15T03:48:11;50.83;;;15.77;;
18072;SDS011;9161;47.348;9.648;2023-02-15T03:53:16;49.83;;;15.97;;
18072;SDS011;9161;47.348;9.648;2023-02-15T03:58:21;49.13;;;16.80;;
18072;SDS011;9161;47.348;9.648;2023-02-15T04:03:41;52.23;;;16.23;;
18072;SDS011;9161;47.348;9.648;2023-02-15T04:08:48;49.03;;;16.20;;
18072;SDS011;9161;47.348;9.648;2023-02-15T04:14:07;51.23;;;17.03;;
18072;SDS011;9161;47.348;9.648;2023-02-15T04:19:23;52.60;;;16.50;;
18072;SDS011;9161;47.348;9.648;2023-02-15T04:24:44;82.73;;;17.40;;
18072;SDS011;9161;47.348;9.648;2023-02-15T04:30:05;69.60;;;15.67;;
18072;SDS011;9161;47.348;9.648;2023-02-15T04:35:09;56.47;;;16.87;;
18072;SDS011;9161;47.348;9.648;2023-02-15T04:40:13;44.07;;;15.73;;
18072;SDS011;9161;47.348;9.648;2023-02-15T04:45:18;54.27;;;15.63;;
18072;SDS011;9161;47.348;9.648;2023-02-15T04:50:21;52.83;;;15.67;;
18072;SDS011;9161;47.348;9.648;2023-02-15T04:55:25;65.77;;;16.30;;
18072;SDS011;9161;47.348;9.648;2023-02-15T05:00:27;52.70;;;16.70;;
18072;SDS011;9161;47.348;9.648;2023-02-15T05:05:29;50.70;;;16.10;;
18072;SDS011;9161;47.348;9.648;2023-02-15T05:10:33;51.73;;;16.13;;
18072;SDS011;9161;47.348;9.648;2023-02-15T05:15:35;58.80;;;16.23;;
18072;SDS011;9161;47.348;9.648;2023-02-15T05:20:37;44.33;;;15.97;;
18072;SDS011;9161;47.348;9.648;2023-02-15T05:25:45;50.30;;;15.83;;
18072;SDS011;9161;47.348;9.648;2023-02-15T05:31:06;58.83;;;17.00;;
18072;SDS011;9161;47.348;9.648;2023-02-15T05:36:11;50.67;;;16.17;;
18072;SDS011;9161;47.348;9.648;2023-02-15T05:41:16;48.63;;;17.53;;
18072;SDS011;9161;47.348;9.648;2023-02-15T05:46:19;48.63;;;17.23;;
18072;SDS011;9161;47.348;9.648;2023-02-15T05:51:22;47.40;;;17.40;;
18072;SDS011;9161;47.348;9.648;2023-02-15T05:56:26;60.20;;;16.57;;
18072;SDS011;9161;47.348;9.648;2023-02-15T06:01:29;42.63;;;15.30;;
18072;SDS011;9161;47.348;9.648;2023-02-15T06:06:32;44.50;;;15.87;;
18072;SDS011;9161;47.348;9.648;2023-02-15T06:11:35;49.00;;;16.43;;
18072;SDS011;9161;47.348;9.648;2023-02-15T06:16:38;46.50;;;15.90;;
18072;SDS011;9161;47.348;9.648;2023-02-15T06:21:40;45.10;;;15.27;;
18072;SDS011;9161;47.348;9.648;2023-02-15T06:26:44;46.33;;;15.03;;
18072;SDS011;9161;47.348;9.648;2023-02-15T06:31:46;45.30;;;16.03;;
18072;SDS011;9161;47.348;9.648;2023-02-15T06:36:48;56.07;;;16.30;;
18072;SDS011;9161;47.348;9.648;2023-02-15T06:41:52;44.47;;;14.93;;
18072;SDS011;9161;47.348;9.648;2023-02-15T06:46:54;46.10;;;17.30;;
18072;SDS011;9161;47.348;9.648;2023-02-15T06:51:56;37.33;;;12.97;;
18072;SDS011;9161;47.348;9.648;2023-02-15T06:57:00;36.47;;;14.97;;
18072;SDS011;9161;47.348;9.648;2023-02-15T07:02:02;56.67;;;15.23;;
18072;SDS011;9161;47.348;9.648;2023-02-15T07:07:07;47.30;;;16.03;;
18072;SDS011;9161;47.348;9.648;2023-02-15T07:12:11;44.27;;;15.83;;
18072;SDS011;9161;47.348;9.648;2023-02-15T07:17:31;45.10;;;15.57;;
18072;SDS011;9161;47.348;9.648;2023-02-15T07:22:35;40.07;;;16.30;;
18072;SDS011;9161;47.348;9.648;2023-02-15T07:27:39;43.70;;;16.37;;
18072;SDS011;9161;47.348;9.648;2023-02-15T07:32:42;40.00;;;16.97;;
18072;SDS011;9161;47.348;9.648;2023-02-15T07:37:58;50.13;;;16.47;;
18072;SDS011;9161;47.348;9.648;2023-02-15T07:43:02;48.73;;;17.77;;
18072;SDS011;9161;47.348;9.648;2023-02-15T07:48:05;43.80;;;15.57;;
18072;SDS011;9161;47.348;9.648;2023-02-15T07:53:07;61.20;;;16.73;;
18072;SDS011;9161;47.348;9.648;2023-02-15T07:58:11;41.97;;;17.20;;
18072;SDS011;9161;47.348;9.648;2023-02-15T08:03:13;37.77;;;15.27;;
18072;SDS011;9161;47.348;9.648;2023-02-15T08:08:16;40.37;;;14.43;;
18072;SDS011;9161;47.348;9.648;2023-02-15T08:13:32;35.33;;;12.77;;
18072;SDS011;9161;47.348;9.648;2023-02-15T08:18:34;38.93;;;14.47;;
18072;SDS011;9161;47.348;9.648;2023-02-15T08:23:36;31.50;;;13.17;;
18072;SDS011;9161;47.348;9.648;2023-02-15T08:28:40;47.77;;;14.83;;
18072;SDS011;9161;47.348;9.648;2023-02-15T08:33:43;30.03;;;9.50;;
18072;SDS011;9161;47.348;9.648;2023-02-15T08:38:46;50.63;;;16.77;;
18072;SDS011;9161;47.348;9.648;2023-02-15T08:43:51;35.70;;;15.20;;
18072;SDS011;9161;47.348;9.648;2023-02-15T08:48:55;34.47;;;13.80;;
18072;SDS011;9161;47.348;9.648;2023-02-15T08:53:59;46.03;;;14.50;;
18072;SDS011;9161;47.348;9.648;2023-02-15T08:59:07;32.30;;;13.30;;
18072;SDS011;9161;47.348;9.648;2023-02-15T09:04:14;31.23;;;13.67;;
18072;SDS011;9161;47.348;9.648;2023-02-15T09:09:18;31.10;;;14.13;;
18072;SDS011;9161;47.348;9.648;2023-02-15T09:14:22;28.90;;;13.57;;
18072;SDS011;9161;47.348;9.648;2023-02-15T09:19:26;30.07;;;12.37;;
18072;SDS011;9161;47.348;9.648;2023-02-15T09:24:31;29.07;;;11.50;;
18072;SDS011;9161;47.348;9.648;2023-02-15T09:29:35;44.33;;;12.27;;
18072;SDS011;9161;47.348;9.648;2023-02-15T09:34:37;27.07;;;11.47;;
18072;SDS011;9161;47.348;9.648;2023-02-15T09:39:40;36.00;;;14.00;;
18072;SDS011;9161;47.348;9.648;2023-02-15T09:50:13;31.23;;;13.90;;
18072;SDS011;9161;47.348;9.648;2023-02-15T09:55:27;24.93;;;12.00;;
18072;SDS011;9161;47.348;9.648;2023-02-15T10:00:40;30.87;;;12.53;;
18072;SDS011;9161;47.348;9.648;2023-02-15T10:05:53;30.33;;;12.33;;
18072;SDS011;9161;47.348;9.648;2023-02-15T10:11:06;33.17;;;13.77;;
18072;SDS011;9161;47.348;9.648;2023-02-15T10:16:51;30.63;;;13.40;;
18072;SDS011;9161;47.348;9.648;2023-02-15T10:21:59;30.17;;;14.03;;
18072;SDS011;9161;47.348;9.648;2023-02-15T10:27:11;22.77;;;11.40;;
18072;SDS011;9161;47.348;9.648;2023-02-15T10:32:20;26.03;;;11.73;;
18072;SDS011;9161;47.348;9.648;2023-02-15T10:42:57;28.30;;;13.17;;
18072;SDS011;9161;47.348;9.648;2023-02-15T10:48:29;29.43;;;13.60;;
18072;SDS011;9161;47.348;9.648;2023-02-15T10:53:57;25.00;;;12.43;;
18072;SDS011;9161;47.348;9.648;2023-02-15T10:59:12;27.07;;;12.67;;
18072;SDS011;9161;47.348;9.648;2023-02-15T11:04:45;28.70;;;12.93;;
18072;SDS011;9161;47.348;9.648;2023-02-15T11:09:57;28.33;;;12.20;;
18072;SDS011;9161;47.348;9.648;2023-02-15T11:15:11;31.80;;;14.00;;
18072;SDS011;9161;47.348;9.648;2023-02-15T11:20:24;29.83;;;13.43;;
18072;SDS011;9161;47.348;9.648;2023-02-15T11:25:31;27.57;;;12.93;;
18072;SDS011;9161;47.348;9.648;2023-02-15T11:30:38;26.63;;;13.03;;
18072;SDS011;9161;47.348;9.648;2023-02-15T11:35:50;32.33;;;14.30;;
18072;SDS011;9161;47.348;9.648;2023-02-15T11:40:55;34.37;;;14.30;;
18072;SDS011;9161;47.348;9.648;2023-02-15T11:46:01;26.40;;;12.87;;
18072;SDS011;9161;47.348;9.648;2023-02-15T11:51:05;30.63;;;14.27;;
18072;SDS011;9161;47.348;9.648;2023-02-15T11:56:14;33.90;;;14.73;;
18072;SDS011;9161;47.348;9.648;2023-02-15T12:01:20;32.63;;;14.00;;
18072;SDS011;9161;47.348;9.648;2023-02-15T12:06:28;25.90;;;12.47;;
18072;SDS011;9161;47.348;9.648;2023-02-15T12:11:35;26.30;;;12.67;;
18072;SDS011;9161;47.348;9.648;2023-02-15T12:16:40;23.40;;;11.50;;
18072;SDS011;9161;47.348;9.648;2023-02-15T12:21:48;29.23;;;13.60;;
18072;SDS011;9161;47.348;9.648;2023-02-15T12:26:56;25.13;;;12.13;;
18072;SDS011;9161;47.348;9.648;2023-02-15T12:32:00;21.43;;;11.00;;
18072;SDS011;9161;47.348;9.648;2023-02-15T12:37:09;21.47;;;10.83;;
18072;SDS011;9161;47.348;9.648;2023-02-15T12:42:17;21.97;;;12.00;;
18072;SDS011;9161;47.348;9.648;2023-02-15T12:47:19;18.57;;;11.30;;
18072;SDS011;9161;47.348;9.648;2023-02-15T12:52:29;20.97;;;11.03;;
18072;SDS011;9161;47.348;9.648;2023-02-15T12:57:31;19.42;;;10.50;;
18072;SDS011;9161;47.348;9.648;2023-02-15T13:02:35;22.58;;;12.27;;
18072;SDS011;9161;47.348;9.648;2023-02-15T13:07:46;23.05;;;11.02;;
18072;SDS011;9161;47.348;9.648;2023-02-15T13:12:51;16.85;;;10.88;;
18072;SDS011;9161;47.348;9.648;2023-02-15T13:17:55;18.27;;;11.45;;
18072;SDS011;9161;47.348;9.648;2023-02-15T13:23:01;18.50;;;11.60;;
18072;SDS011;9161;47.348;9.648;2023-02-15T13:28:06;19.30;;;12.18;;
18072;SDS011;9161;47.348;9.648;2023-02-15T13:33:17;19.67;;;11.82;;
18072;SDS011;9161;47.348;9.648;2023-02-15T13:38:41;18.13;;;12.43;;
18072;SDS011;9161;47.348;9.648;2023-02-15T13:44:01;19.63;;;11.52;;
18072;SDS011;9161;47.348;9.648;2023-02-15T13:49:14;20.85;;;11.93;;
18072;SDS011;9161;47.348;9.648;2023-02-15T13:54:31;20.85;;;12.32;;
18072;SDS011;9161;47.348;9.648;2023-02-15T13:59:46;12.48;;;7.30;;
18072;SDS011;9161;47.348;9.648;2023-02-15T14:05:05;21.20;;;12.45;;
18072;SDS011;9161;47.348;9.648;2023-02-15T14:10:31;19.52;;;11.35;;
18072;SDS011;9161;47.348;9.648;2023-02-15T14:15:41;17.95;;;11.13;;
18072;SDS011;9161;47.348;9.648;2023-02-15T14:20:51;17.25;;;9.93;;
18072;SDS011;9161;47.348;9.648;2023-02-15T14:26:05;21.83;;;10.15;;
18072;SDS011;9161;47.348;9.648;2023-02-15T14:31:12;21.83;;;11.73;;
18072;SDS011;9161;47.348;9.648;2023-02-15T14:36:17;24.27;;;12.23;;
18072;SDS011;9161;47.348;9.648;2023-02-15T14:41:23;19.88;;;12.35;;
18072;SDS011;9161;47.348;9.648;2023-02-15T14:46:34;19.73;;;12.13;;
18072;SDS011;9161;47.348;9.648;2023-02-15T14:51:59;20.90;;;12.10;;
18072;SDS011;9161;47.348;9.648;2023-02-15T15:02:43;23.95;;;13.60;;
18072;SDS011;9161;47.348;9.648;2023-02-15T15:07:49;21.10;;;12.65;;
18072;SDS011;9161;47.348;9.648;2023-02-15T15:12:55;21.10;;;13.00;;
18072;SDS011;9161;47.348;9.648;2023-02-15T15:17:59;26.83;;;13.40;;
18072;SDS011;9161;47.348;9.648;2023-02-15T15:28:54;28.53;;;14.27;;
18072;SDS011;9161;47.348;9.648;2023-02-15T15:39:50;29.60;;;13.60;;
18072;SDS011;9161;47.348;9.648;2023-02-15T15:51:10;23.63;;;11.93;;
18072;SDS011;9161;47.348;9.648;2023-02-15T15:56:16;22.57;;;11.47;;
18072;SDS011;9161;47.348;9.648;2023-02-15T16:01:26;28.83;;;13.00;;
18072;SDS011;9161;47.348;9.648;2023-02-15T16:06:31;27.40;;;12.13;;
18072;SDS011;9161;47.348;9.648;2023-02-15T16:11:36;26.53;;;12.87;;
18072;SDS011;9161;47.348;9.648;2023-02-15T16:16:44;25.67;;;13.37;;
18072;SDS011;9161;47.348;9.648;2023-02-15T16:21:52;30.20;;;13.50;;
18072;SDS011;9161;47.348;9.648;2023-02-15T16:27:00;29.53;;;13.10;;
18072;SDS011;9161;47.348;9.648;2023-02-15T16:32:24;26.40;;;11.53;;
18072;SDS011;9161;47.348;9.648;2023-02-15T16:37:31;30.10;;;12.37;;
18072;SDS011;9161;47.348;9.648;2023-02-15T16:42:35;32.97;;;12.70;;
18072;SDS011;9161;47.348;9.648;2023-02-15T16:47:40;33.03;;;13.80;;
18072;SDS011;9161;47.348;9.648;2023-02-15T16:52:45;30.50;;;12.80;;
18072;SDS011;9161;47.348;9.648;2023-02-15T16:57:49;30.13;;;14.37;;
18072;SDS011;9161;47.348;9.648;2023-02-15T17:02:57;36.63;;;14.00;;
18072;SDS011;9161;47.348;9.648;2023-02-15T17:08:06;30.97;;;13.37;;
18072;SDS011;9161;47.348;9.648;2023-02-15T17:13:17;33.00;;;13.60;;
18072;SDS011;9161;47.348;9.648;2023-02-15T17:18:26;33.00;;;15.00;;
18072;SDS011;9161;47.348;9.648;2023-02-15T17:23:32;37.53;;;15.50;;
18072;SDS011;9161;47.348;9.648;2023-02-15T17:28:38;41.63;;;16.53;;
18072;SDS011;9161;47.348;9.648;2023-02-15T17:33:52;36.57;;;14.13;;
18072;SDS011;9161;47.348;9.648;2023-02-15T17:39:02;35.53;;;14.23;;
18072;SDS011;9161;47.348;9.648;2023-02-15T17:44:11;38.67;;;15.93;;
18072;SDS011;9161;47.348;9.648;2023-02-15T17:49:18;39.80;;;17.33;;
18072;SDS011;9161;47.348;9.648;2023-02-15T17:54:27;34.87;;;15.30;;
18072;SDS011;9161;47.348;9.648;2023-02-15T17:59:48;42.97;;;16.77;;
18072;SDS011;9161;47.348;9.648;2023-02-15T18:05:13;40.33;;;18.30;;
18072;SDS011;9161;47.348;9.648;2023-02-15T18:10:34;36.87;;;15.33;;
18072;SDS011;9161;47.348;9.648;2023-02-15T18:15:57;37.40;;;15.37;;
18072;SDS011;9161;47.348;9.648;2023-02-15T18:21:05;34.80;;;15.33;;
18072;SDS011;9161;47.348;9.648;2023-02-15T18:26:19;36.00;;;14.40;;
18072;SDS011;9161;47.348;9.648;2023-02-15T18:31:27;36.73;;;15.77;;
18072;SDS011;9161;47.348;9.648;2023-02-15T18:36:34;42.00;;;18.37;;
18072;SDS011;9161;47.348;9.648;2023-02-15T18:41:45;39.83;;;17.33;;
18072;SDS011;9161;47.348;9.648;2023-02-15T18:46:49;40.27;;;17.67;;
18072;SDS011;9161;47.348;9.648;2023-02-15T18:51:58;43.63;;;19.27;;
18072;SDS011;9161;47.348;9.648;2023-02-15T18:57:04;43.70;;;18.53;;
18072;SDS011;9161;47.348;9.648;2023-02-15T19:02:12;46.10;;;18.37;;
18072;SDS011;9161;47.348;9.648;2023-02-15T19:07:23;48.90;;;19.33;;
18072;SDS011;9161;47.348;9.648;2023-02-15T19:12:29;43.90;;;18.60;;
18072;SDS011;9161;47.348;9.648;2023-02-15T19:17:34;47.33;;;19.57;;
18072;SDS011;9161;47.348;9.648;2023-02-15T19:22:43;47.57;;;17.90;;
18072;SDS011;9161;47.348;9.648;2023-02-15T19:27:48;39.93;;;17.50;;
18072;SDS011;9161;47.348;9.648;2023-02-15T19:32:54;40.10;;;18.90;;
18072;SDS011;9161;47.348;9.648;2023-02-15T19:38:06;41.50;;;18.57;;
18072;SDS011;9161;47.348;9.648;2023-02-15T19:43:19;45.17;;;19.83;;
18072;SDS011;9161;47.348;9.648;2023-02-15T19:48:27;44.47;;;18.53;;
18072;SDS011;9161;47.348;9.648;2023-02-15T19:53:33;44.17;;;17.90;;
18072;SDS011;9161;47.348;9.648;2023-02-15T19:58:39;46.57;;;20.00;;
18072;SDS011;9161;47.348;9.648;2023-02-15T20:03:45;40.30;;;18.23;;
18072;SDS011;9161;47.348;9.648;2023-02-15T20:08:57;43.90;;;19.40;;
18072;SDS011;9161;47.348;9.648;2023-02-15T20:14:01;53.33;;;21.80;;
18072;SDS011;9161;47.348;9.648;2023-02-15T20:19:06;52.53;;;23.17;;
18072;SDS011;9161;47.348;9.648;2023-02-15T20:24:17;59.70;;;25.23;;
18072;SDS011;9161;47.348;9.648;2023-02-15T20:29:23;44.77;;;20.97;;
18072;SDS011;9161;47.348;9.648;2023-02-15T20:34:28;35.13;;;15.40;;
18072;SDS011;9161;47.348;9.648;2023-02-15T20:39:35;26.30;;;13.30;;
18072;SDS011;9161;47.348;9.648;2023-02-15T20:44:49;25.67;;;12.83;;
18072;SDS011;9161;47.348;9.648;2023-02-15T20:49:54;25.40;;;12.67;;
18072;SDS011;9161;47.348;9.648;2023-02-15T21:01:12;27.37;;;13.53;;
18072;SDS011;9161;47.348;9.648;2023-02-15T21:06:32;27.90;;;14.00;;
18072;SDS011;9161;47.348;9.648;2023-02-15T21:11:37;29.23;;;13.60;;
18072;SDS011;9161;47.348;9.648;2023-02-15T21:16:44;26.03;;;12.47;;
18072;SDS011;9161;47.348;9.648;2023-02-15T21:21:49;26.97;;;13.07;;
18072;SDS011;9161;47.348;9.648;2023-02-15T21:26:55;22.80;;;11.27;;
18072;SDS011;9161;47.348;9.648;2023-02-15T21:32:09;21.03;;;11.60;;
18072;SDS011;9161;47.348;9.648;2023-02-15T21:37:18;23.67;;;11.37;;
18072;SDS011;9161;47.348;9.648;2023-02-15T21:42:31;21.93;;;10.40;;
18072;SDS011;9161;47.348;9.648;2023-02-15T21:47:52;24.20;;;11.70;;
18072;SDS011;9161;47.348;9.648;2023-02-15T21:52:55;21.07;;;10.43;;
18072;SDS011;9161;47.348;9.648;2023-02-15T21:57:58;24.17;;;11.43;;
18072;SDS011;9161;47.348;9.648;2023-02-15T22:03:03;25.77;;;12.27;;
18072;SDS011;9161;47.348;9.648;2023-02-15T22:08:08;26.13;;;13.20;;
18072;SDS011;9161;47.348;9.648;2023-02-15T22:13:13;27.97;;;13.03;;
18072;SDS011;9161;47.348;9.648;2023-02-15T22:18:20;28.83;;;14.17;;
18072;SDS011;9161;47.348;9.648;2023-02-15T22:23:24;28.97;;;14.07;;
18072;SDS011;9161;47.348;9.648;2023-02-15T22:28:27;27.93;;;13.03;;
18072;SDS011;9161;47.348;9.648;2023-02-15T22:33:34;25.03;;;12.43;;
18072;SDS011;9161;47.348;9.648;2023-02-15T22:38:36;28.53;;;13.57;;
18072;SDS011;9161;47.348;9.648;2023-02-15T22:43:40;27.90;;;13.13;;
18072;SDS011;9161;47.348;9.648;2023-02-15T22:48:45;27.23;;;12.70;;
18072;SDS011;9161;47.348;9.648;2023-02-15T22:53:48;31.33;;;14.30;;
18072;SDS011;9161;47.348;9.648;2023-02-15T22:58:53;28.83;;;14.30;;
18072;SDS011;9161;47.348;9.648;2023-02-15T23:04:02;27.50;;;13.50;;
18072;SDS011;9161;47.348;9.648;2023-02-15T23:09:05;26.77;;;13.17;;
18072;SDS011;9161;47.348;9.648;2023-02-15T23:14:12;27.10;;;13.47;;
18072;SDS011;9161;47.348;9.648;2023-02-15T23:19:25;30.77;;;14.60;;
18072;SDS011;9161;47.348;9.648;2023-02-15T23:24:29;29.27;;;13.73;;
18072;SDS011;9161;47.348;9.648;2023-02-15T23:29:33;27.07;;;13.97;;
18072;SDS011;9161;47.348;9.648;2023-02-15T23:34:36;29.27;;;13.53;;
18072;SDS011;9161;47.348;9.648;2023-02-15T23:39:38;36.10;;;15.00;;
18072;SDS011;9161;47.348;9.648;2023-02-15T23:44:59;29.10;;;14.20;;
18072;SDS011;9161;47.348;9.648;2023-02-15T23:50:04;28.90;;;13.33;;
18072;SDS011;9161;47.348;9.648;2023-02-15T23:55:16;30.20;;;13.53;;
